createdAt,value
2022-10-21T00:04:41.807Z,4.95
2022-10-21T00:09:43.652Z,4.95
2022-10-21T00:14:45.445Z,4.95
2022-10-21T00:19:47.310Z,4.88
2022-10-21T00:24:49.258Z,4.77
2022-10-21T00:29:50.979Z,4.61
2022-10-21T00:34:53.019Z,4.42
2022-10-21T00:39:55.103Z,4.36
2022-10-21T00:45:09.177Z,4.34
2022-10-21T00:50:32.648Z,4.28
2022-10-21T00:55:39.607Z,4.21
2022-10-21T01:00:41.481Z,4.11
2022-10-21T01:05:44.677Z,3.96
2022-10-21T01:10:47.730Z,3.79
2022-10-21T01:16:04.779Z,3.61
2022-10-21T01:21:15.680Z,3.57
2022-10-21T01:26:38.569Z,3.52
2022-10-21T01:31:50.757Z,3.47
2022-10-21T01:37:17.440Z,3.43
2022-10-21T01:42:35.144Z,3.45
2022-10-21T01:47:42.381Z,3.44
2022-10-21T01:53:03.448Z,3.43
2022-10-21T01:58:29.007Z,3.36
2022-10-21T02:03:35.085Z,3.26
2022-10-21T02:08:37.142Z,3.27
2022-10-21T02:13:51.578Z,3.30
2022-10-21T02:18:55.539Z,3.27
2022-10-21T02:24:02.976Z,3.18
2022-10-21T02:29:05.155Z,3.08
2022-10-21T02:34:30.174Z,3.02
2022-10-21T02:39:41.313Z,2.96
2022-10-21T02:44:43.066Z,2.86
2022-10-21T02:49:46.138Z,2.90
2022-10-21T02:54:48.093Z,2.85
2022-10-21T02:59:50.033Z,2.88
2022-10-21T03:04:51.939Z,3.07
2022-10-21T03:09:53.813Z,3.26
2022-10-21T03:14:55.593Z,3.44
2022-10-21T03:19:57.465Z,3.54
2022-10-21T03:24:59.401Z,3.59
2022-10-21T03:30:01.446Z,3.62
2022-10-21T03:35:17.505Z,3.70
2022-10-21T03:40:20.085Z,3.74
2022-10-21T03:45:21.820Z,3.72
2022-10-21T03:50:26.371Z,3.67
2022-10-21T03:55:28.996Z,3.63
2022-10-21T04:00:31.803Z,3.58
2022-10-21T04:05:34.349Z,3.48
2022-10-21T04:10:36.162Z,3.52
2022-10-21T04:15:38.146Z,3.60
2022-10-21T04:20:39.953Z,3.61
2022-10-21T04:25:44.674Z,3.60
2022-10-21T04:30:57.809Z,3.68
2022-10-21T04:35:59.750Z,3.72
2022-10-21T04:41:03.632Z,3.69
2022-10-21T04:46:12.025Z,3.76
2022-10-21T04:51:14.205Z,3.61
2022-10-21T04:56:16.202Z,3.53
2022-10-21T05:01:17.960Z,3.51
2022-10-21T05:06:40.422Z,3.49
2022-10-21T05:11:49.173Z,3.55
2022-10-21T05:16:50.955Z,3.56
2022-10-21T05:21:59.427Z,3.59
2022-10-21T05:27:07.838Z,3.53
2022-10-21T05:32:09.634Z,3.57
2022-10-21T05:37:11.365Z,3.82
2022-10-21T05:42:13.373Z,4.06
2022-10-21T05:47:15.542Z,4.32
2022-10-21T05:52:17.267Z,4.55
2022-10-21T05:57:19.049Z,4.70
2022-10-21T06:02:20.967Z,4.82
2022-10-21T06:07:22.992Z,4.96
2022-10-21T06:12:25.378Z,5.06
2022-10-21T06:17:37.965Z,5.16
2022-10-21T06:22:40.000Z,5.26
2022-10-21T06:27:41.961Z,5.32
2022-10-21T06:32:43.868Z,5.39
2022-10-21T06:37:45.813Z,5.49
2022-10-21T06:43:08.453Z,5.81
2022-10-21T06:48:23.885Z,6.13
2022-10-21T06:53:26.218Z,6.39
2022-10-21T06:58:28.103Z,6.73
2022-10-21T07:03:30.101Z,7.23
2022-10-21T07:08:46.537Z,7.76
2022-10-21T07:13:55.809Z,8.23
2022-10-21T07:18:58.361Z,8.56
2022-10-21T07:24:00.880Z,8.96
2022-10-21T07:29:03.137Z,9.38
2022-10-21T07:34:08.136Z,9.75
2022-10-21T07:39:14.189Z,10.08
2022-10-21T07:44:17.306Z,10.41
2022-10-21T07:49:20.743Z,10.73
2022-10-21T07:54:23.145Z,11.03
2022-10-21T07:59:25.127Z,11.35
2022-10-21T08:04:29.913Z,11.66
2022-10-21T08:09:31.939Z,11.96
2022-10-21T08:14:34.557Z,12.30
2022-10-21T08:19:36.633Z,12.64
2022-10-21T08:24:41.532Z,12.89
2022-10-21T08:29:44.480Z,13.15
2022-10-21T08:34:46.258Z,13.28
2022-10-21T08:39:48.236Z,13.26
2022-10-21T08:45:03.218Z,13.11
2022-10-21T08:50:13.684Z,12.95
2022-10-21T08:55:22.301Z,12.79
2022-10-21T09:00:31.143Z,12.61
2022-10-21T09:05:45.498Z,12.49
2022-10-21T09:11:19.988Z,12.38
2022-10-21T09:16:33.695Z,12.31
2022-10-21T09:21:40.518Z,12.30
2022-10-21T09:26:45.812Z,12.35
2022-10-21T09:31:54.344Z,12.54
2022-10-21T09:37:00.715Z,12.70
2022-10-21T09:42:29.226Z,12.84
2022-10-21T09:47:34.954Z,13.09
2022-10-21T09:52:38.458Z,13.29
2022-10-21T09:57:47.042Z,13.53
2022-10-21T10:02:49.808Z,13.82
2022-10-21T10:07:51.906Z,14.13
2022-10-21T10:13:01.681Z,14.35
2022-10-21T10:18:05.157Z,14.50
2022-10-21T10:23:09.929Z,14.57
2022-10-21T10:28:11.718Z,14.65
2022-10-21T10:33:22.050Z,14.80
2022-10-21T10:38:29.388Z,15.02
2022-10-21T10:43:32.068Z,15.22
2022-10-21T10:48:48.637Z,15.35
2022-10-21T10:54:01.639Z,15.32
2022-10-21T10:59:28.531Z,15.07
2022-10-21T11:05:04.238Z,15.01
2022-10-21T11:10:37.205Z,15.13
2022-10-21T11:15:57.228Z,15.37
2022-10-21T11:21:37.418Z,15.71
2022-10-21T11:26:52.565Z,15.95
2022-10-21T11:32:32.517Z,16.07
2022-10-21T11:38:06.611Z,15.91
2022-10-21T11:43:26.857Z,15.85
2022-10-21T11:48:31.804Z,16.00
2022-10-21T11:54:03.410Z,16.15
2022-10-21T11:59:35.358Z,16.28
2022-10-21T12:04:51.372Z,16.36
2022-10-21T12:10:10.163Z,16.58
2022-10-21T12:15:27.137Z,16.71
2022-10-21T12:20:29.262Z,16.67
2022-10-21T12:26:14.297Z,16.52
2022-10-21T12:31:45.495Z,16.51
2022-10-21T12:36:50.952Z,16.52
2022-10-21T12:42:14.486Z,16.48
2022-10-21T12:47:34.910Z,16.46
2022-10-21T12:52:40.332Z,16.41
2022-10-21T12:57:43.516Z,16.43
2022-10-21T13:03:05.640Z,16.37
2022-10-21T13:08:22.877Z,16.30
2022-10-21T13:13:38.919Z,16.22
2022-10-21T13:18:58.017Z,16.11
2022-10-21T13:24:25.494Z,16.08
2022-10-21T13:29:37.177Z,16.14
2022-10-21T13:34:43.223Z,16.23
2022-10-21T13:39:51.864Z,16.24
2022-10-21T13:45:29.559Z,16.23
2022-10-21T13:50:38.564Z,16.18
2022-10-21T13:55:40.405Z,16.03
2022-10-21T14:00:42.345Z,15.85
2022-10-21T14:05:55.265Z,15.66
2022-10-21T14:11:12.526Z,15.39
2022-10-21T14:16:22.411Z,15.20
2022-10-21T14:21:27.813Z,15.08
2022-10-21T14:26:34.673Z,14.92
2022-10-21T14:31:36.516Z,14.73
2022-10-21T14:37:00.872Z,14.53
2022-10-21T14:42:08.959Z,14.33
2022-10-21T14:47:24.018Z,14.18
2022-10-21T14:52:53.537Z,14.02
2022-10-21T14:58:07.799Z,13.90
2022-10-21T15:03:12.282Z,13.77
2022-10-21T15:08:20.400Z,13.65
2022-10-21T15:13:22.907Z,13.54
2022-10-21T15:18:28.990Z,13.43
2022-10-21T15:23:41.272Z,13.33
2022-10-21T15:28:43.312Z,13.25
2022-10-21T15:33:45.376Z,13.17
2022-10-21T15:38:48.835Z,13.12
2022-10-21T15:44:09.553Z,13.07
2022-10-21T15:49:34.572Z,13.02
2022-10-21T15:54:47.418Z,12.95
2022-10-21T15:59:49.385Z,12.92
2022-10-21T16:04:53.620Z,12.89
2022-10-21T16:09:56.717Z,12.85
2022-10-21T16:15:46.458Z,12.79
2022-10-21T16:20:48.917Z,12.74
2022-10-21T16:25:50.995Z,12.72
2022-10-21T16:30:53.795Z,12.69
2022-10-21T16:35:55.880Z,12.66
2022-10-21T16:41:21.614Z,12.62
2022-10-21T16:46:39.761Z,12.57
2022-10-21T16:51:46.258Z,12.54
2022-10-21T16:56:48.785Z,12.52
2022-10-21T17:02:06.517Z,12.48
2022-10-21T17:07:17.284Z,12.45
2022-10-21T17:12:19.266Z,12.39
2022-10-21T17:17:22.476Z,12.39
2022-10-21T17:22:24.601Z,12.47
2022-10-21T17:27:26.533Z,12.52
2022-10-21T17:32:29.831Z,12.53
2022-10-21T17:37:32.235Z,12.48
2022-10-21T17:42:34.270Z,12.43
2022-10-21T17:47:50.535Z,12.39
2022-10-21T17:52:54.544Z,12.39
2022-10-21T17:57:56.728Z,12.41
2022-10-21T18:02:59.099Z,12.40
2022-10-21T18:08:00.958Z,12.41
2022-10-21T18:13:04.423Z,12.40
2022-10-21T18:18:06.711Z,12.36
2022-10-21T18:23:08.490Z,12.32
2022-10-21T18:28:10.935Z,12.29
2022-10-21T18:33:12.841Z,12.28
2022-10-21T18:38:14.917Z,12.28
2022-10-21T18:43:17.323Z,12.27
2022-10-21T18:48:25.879Z,12.21
2022-10-21T18:53:27.720Z,12.11
2022-10-21T18:58:31.227Z,11.96
2022-10-21T19:03:33.451Z,11.80
2022-10-21T19:08:35.441Z,11.67
2022-10-21T19:13:37.445Z,11.59
2022-10-21T19:18:39.438Z,11.51
2022-10-21T19:23:41.367Z,11.44
2022-10-21T19:28:45.219Z,11.37
2022-10-21T19:33:47.499Z,11.27
2022-10-21T19:38:49.543Z,11.19
2022-10-21T19:43:54.718Z,11.10
2022-10-21T19:49:05.995Z,11.01
2022-10-21T19:54:11.973Z,10.91
2022-10-21T19:59:13.856Z,10.83
2022-10-21T20:04:16.317Z,10.79
2022-10-21T20:09:20.678Z,10.75
2022-10-21T20:14:22.557Z,10.69
2022-10-21T20:19:24.945Z,10.63
2022-10-21T20:24:26.925Z,10.60
2022-10-21T20:29:29.309Z,10.62
2022-10-21T20:34:34.198Z,10.68
2022-10-21T20:39:41.257Z,10.74
2022-10-21T20:44:43.242Z,10.82
2022-10-21T20:49:45.215Z,10.89
2022-10-21T20:54:47.608Z,10.97
2022-10-21T20:59:49.424Z,11.03
2022-10-21T21:04:51.362Z,11.08
2022-10-21T21:10:02.059Z,11.12
2022-10-21T21:15:09.403Z,11.12
2022-10-21T21:20:11.387Z,11.10
2022-10-21T21:25:13.353Z,11.09
2022-10-21T21:30:15.568Z,11.10
2022-10-21T21:35:17.571Z,11.14
2022-10-21T21:40:19.555Z,11.18
2022-10-21T21:45:28.442Z,11.19
2022-10-21T21:50:46.422Z,11.21
2022-10-21T21:55:48.463Z,11.20
2022-10-21T22:00:50.395Z,11.19
2022-10-21T22:05:52.282Z,11.19
2022-10-21T22:10:54.153Z,11.17
2022-10-21T22:15:55.850Z,11.16
2022-10-21T22:21:03.248Z,11.15
2022-10-21T22:26:07.035Z,11.16
2022-10-21T22:31:12.396Z,11.19
2022-10-21T22:36:16.809Z,11.21
2022-10-21T22:41:18.845Z,11.25
2022-10-21T22:46:33.388Z,11.27
2022-10-21T22:51:36.281Z,11.26
2022-10-21T22:56:38.501Z,11.27
2022-10-21T23:01:40.322Z,11.27
2022-10-21T23:06:42.151Z,11.24
2022-10-21T23:11:47.366Z,11.20
2022-10-21T23:16:53.271Z,11.18
2022-10-21T23:21:55.160Z,11.17
2022-10-21T23:26:59.152Z,11.14
2022-10-21T23:32:06.791Z,11.15
2022-10-21T23:37:08.842Z,11.17
2022-10-21T23:42:10.721Z,11.17
2022-10-21T23:47:12.742Z,11.20
2022-10-21T23:52:14.640Z,11.24
2022-10-21T23:57:16.464Z,11.25
